sensor_id;sensor_type;location;lat;lon;timestamp;pressure;altitude;pressure_sealevel;temperature;humidity
49947;BME280;35839;48.662;13.300;2023-03-01T05:38:11;97941.25;;;1.09;76.05
49947;BME280;35839;48.662;13.300;2023-03-01T05:40:39;97940.22;;;0.78;78.84
49947;BME280;35839;48.662;13.300;2023-03-01T05:43:05;97934.44;;;0.73;78.06
49947;BME280;35839;48.662;13.300;2023-03-01T05:45:31;97931.88;;;1.08;76.11
49947;BME280;35839;48.662;13.300;2023-03-01T05:47:59;97930.75;;;1.30;74.13
49947;BME280;35839;48.662;13.300;2023-03-01T05:50:27;97929.97;;;1.45;73.63
49947;BME280;35839;48.662;13.300;2023-03-01T05:53:14;97923.38;;;1.73;72.55
49947;BME280;35839;48.662;13.300;2023-03-01T05:55:40;97926.00;;;1.55;72.63
49947;BME280;35839;48.662;13.300;2023-03-01T05:58:12;97929.97;;;1.61;71.87
49947;BME280;35839;48.662;13.300;2023-03-01T06:00:40;97926.38;;;1.14;74.63
49947;BME280;35839;48.662;13.300;2023-03-01T06:03:08;97922.91;;;1.15;76.17
49947;BME280;35839;48.662;13.300;2023-03-01T06:05:35;97923.63;;;0.30;80.89
49947;BME280;35839;48.662;13.300;2023-03-01T06:08:01;97929.13;;;-0.14;83.81
49947;BME280;35839;48.662;13.300;2023-03-01T06:10:27;97931.47;;;0.46;82.03
49947;BME280;35839;48.662;13.300;2023-03-01T06:12:53;97925.50;;;0.63;81.07
49947;BME280;35839;48.662;13.300;2023-03-01T06:15:19;97926.81;;;0.89;78.19
49947;BME280;35839;48.662;13.300;2023-03-01T06:17:45;97930.03;;;1.10;77.09
49947;BME280;35839;48.662;13.300;2023-03-01T06:20:14;97933.63;;;1.23;76.21
49947;BME280;35839;48.662;13.300;2023-03-01T06:22:43;97923.09;;;1.28;76.16
49947;BME280;35839;48.662;13.300;2023-03-01T06:25:10;97922.78;;;1.34;76.67
49947;BME280;35839;48.662;13.300;2023-03-01T06:27:36;97937.34;;;0.84;80.59
49947;BME280;35839;48.662;13.300;2023-03-01T06:30:01;97930.13;;;0.91;82.88
49947;BME280;35839;48.662;13.300;2023-03-01T06:32:27;97923.00;;;0.96;80.41
49947;BME280;35839;48.662;13.300;2023-03-01T06:34:52;97929.28;;;0.91;80.36
49947;BME280;35839;48.662;13.300;2023-03-01T06:37:17;97931.22;;;1.20;79.15
49947;BME280;35839;48.662;13.300;2023-03-01T06:39:43;97929.03;;;1.63;76.78
49947;BME280;35839;48.662;13.300;2023-03-01T06:42:08;97925.75;;;1.60;79.81
49947;BME280;35839;48.662;13.300;2023-03-01T06:44:35;97932.94;;;1.71;78.20
49947;BME280;35839;48.662;13.300;2023-03-01T06:47:01;97930.00;;;1.77;78.54
49947;BME280;35839;48.662;13.300;2023-03-01T06:49:26;97934.38;;;1.92;77.38
49947;BME280;35839;48.662;13.300;2023-03-01T06:51:51;97935.97;;;2.10;77.59
49947;BME280;35839;48.662;13.300;2023-03-01T06:54:17;97939.25;;;2.44;75.86
49947;BME280;35839;48.662;13.300;2023-03-01T06:56:43;97939.69;;;2.37;75.07
49947;BME280;35839;48.662;13.300;2023-03-01T06:59:11;97940.19;;;2.27;75.48
49947;BME280;35839;48.662;13.300;2023-03-01T07:01:36;97937.16;;;2.51;73.05
49947;BME280;35839;48.662;13.300;2023-03-01T07:04:02;97928.66;;;2.49;73.02
49947;BME280;35839;48.662;13.300;2023-03-01T07:06:27;97933.97;;;2.62;72.33
49947;BME280;35839;48.662;13.300;2023-03-01T07:08:52;97931.41;;;2.62;72.24
49947;BME280;35839;48.662;13.300;2023-03-01T07:11:18;97934.94;;;2.75;72.65
49947;BME280;35839;48.662;13.300;2023-03-01T07:13:43;97934.25;;;2.41;75.95
49947;BME280;35839;48.662;13.300;2023-03-01T07:16:08;97928.34;;;2.39;76.82
49947;BME280;35839;48.662;13.300;2023-03-01T07:18:34;97932.25;;;2.46;78.66
49947;BME280;35839;48.662;13.300;2023-03-01T07:21:04;97931.09;;;2.82;76.68
49947;BME280;35839;48.662;13.300;2023-03-01T07:23:30;97934.41;;;2.84;76.13
49947;BME280;35839;48.662;13.300;2023-03-01T07:25:56;97927.25;;;3.04;73.86
49947;BME280;35839;48.662;13.300;2023-03-01T07:28:25;97918.81;;;3.00;73.97
49947;BME280;35839;48.662;13.300;2023-03-01T07:30:50;97918.03;;;3.14;71.81
49947;BME280;35839;48.662;13.300;2023-03-01T07:33:16;97919.56;;;3.02;74.66
49947;BME280;35839;48.662;13.300;2023-03-01T07:35:41;97924.34;;;3.24;73.94
49947;BME280;35839;48.662;13.300;2023-03-01T07:38:07;97922.44;;;3.12;72.79
49947;BME280;35839;48.662;13.300;2023-03-01T07:40:32;97910.66;;;3.36;72.38
49947;BME280;35839;48.662;13.300;2023-03-01T07:42:58;97907.69;;;3.57;70.54
49947;BME280;35839;48.662;13.300;2023-03-01T07:45:24;97914.53;;;3.44;68.12
49947;BME280;35839;48.662;13.300;2023-03-01T07:47:51;97906.56;;;3.75;67.59
49947;BME280;35839;48.662;13.300;2023-03-01T07:50:16;97917.50;;;3.66;68.25
49947;BME280;35839;48.662;13.300;2023-03-01T07:52:41;97907.97;;;3.67;68.04
49947;BME280;35839;48.662;13.300;2023-03-01T07:55:08;97909.06;;;4.18;70.82
49947;BME280;35839;48.662;13.300;2023-03-01T07:57:33;97900.69;;;4.28;70.80
49947;BME280;35839;48.662;13.300;2023-03-01T07:59:59;97899.91;;;4.13;68.44
49947;BME280;35839;48.662;13.300;2023-03-01T08:02:24;97892.34;;;4.37;71.78
49947;BME280;35839;48.662;13.300;2023-03-01T08:04:49;97894.03;;;4.51;69.49
49947;BME280;35839;48.662;13.300;2023-03-01T08:07:15;97887.75;;;4.68;69.94
49947;BME280;35839;48.662;13.300;2023-03-01T08:09:40;97887.06;;;4.51;67.96
49947;BME280;35839;48.662;13.300;2023-03-01T08:12:05;97887.03;;;4.78;65.98
49947;BME280;35839;48.662;13.300;2023-03-01T08:14:32;97893.66;;;4.70;66.31
49947;BME280;35839;48.662;13.300;2023-03-01T08:16:57;97890.88;;;4.85;65.14
49947;BME280;35839;48.662;13.300;2023-03-01T08:19:23;97888.19;;;5.00;66.33
49947;BME280;35839;48.662;13.300;2023-03-01T08:21:48;97890.03;;;4.72;66.89
49947;BME280;35839;48.662;13.300;2023-03-01T08:24:14;97889.22;;;4.84;65.51
49947;BME280;35839;48.662;13.300;2023-03-01T08:26:39;97887.06;;;5.04;64.64
49947;BME280;35839;48.662;13.300;2023-03-01T08:29:05;97883.31;;;5.21;63.43
49947;BME280;35839;48.662;13.300;2023-03-01T08:31:36;97878.03;;;5.48;61.29
49947;BME280;35839;48.662;13.300;2023-03-01T08:34:05;97871.41;;;5.81;61.79
49947;BME280;35839;48.662;13.300;2023-03-01T08:36:35;97871.34;;;5.94;58.89
49947;BME280;35839;48.662;13.300;2023-03-01T08:39:00;97861.16;;;5.66;59.11
49947;BME280;35839;48.662;13.300;2023-03-01T08:41:26;97860.75;;;5.97;59.33
49947;BME280;35839;48.662;13.300;2023-03-01T08:43:53;97858.16;;;5.60;60.44
49947;BME280;35839;48.662;13.300;2023-03-01T08:46:29;97856.69;;;5.56;59.61
49947;BME280;35839;48.662;13.300;2023-03-01T08:48:55;97856.13;;;5.76;60.60
49947;BME280;35839;48.662;13.300;2023-03-01T08:51:22;97863.13;;;5.63;60.47
49947;BME280;35839;48.662;13.300;2023-03-01T08:53:48;97864.66;;;5.78;59.24
49947;BME280;35839;48.662;13.300;2023-03-01T08:56:16;97859.50;;;5.89;59.79
49947;BME280;35839;48.662;13.300;2023-03-01T08:58:46;97859.91;;;6.09;60.15
49947;BME280;35839;48.662;13.300;2023-03-01T09:01:14;97855.19;;;6.73;57.54
49947;BME280;35839;48.662;13.300;2023-03-01T09:03:40;97855.19;;;6.38;57.38
49947;BME280;35839;48.662;13.300;2023-03-01T09:06:07;97848.06;;;6.64;58.91
49947;BME280;35839;48.662;13.300;2023-03-01T09:08:44;97847.38;;;6.62;58.41
49947;BME280;35839;48.662;13.300;2023-03-01T09:11:12;97841.44;;;6.36;60.24
49947;BME280;35839;48.662;13.300;2023-03-01T09:13:38;97838.03;;;6.36;60.56
49947;BME280;35839;48.662;13.300;2023-03-01T09:16:05;97837.72;;;6.98;56.89
49947;BME280;35839;48.662;13.300;2023-03-01T09:18:32;97832.16;;;6.91;56.72
49947;BME280;35839;48.662;13.300;2023-03-01T09:21:14;97826.59;;;6.49;57.85
49947;BME280;35839;48.662;13.300;2023-03-01T09:23:42;97822.13;;;7.09;56.11
49947;BME280;35839;48.662;13.300;2023-03-01T09:26:10;97832.06;;;7.04;56.77
49947;BME280;35839;48.662;13.300;2023-03-01T09:28:36;97823.03;;;7.08;57.43
49947;BME280;35839;48.662;13.300;2023-03-01T09:31:02;97824.72;;;7.09;57.55
49947;BME280;35839;48.662;13.300;2023-03-01T09:33:29;97816.69;;;7.46;55.79
49947;BME280;35839;48.662;13.300;2023-03-01T09:35:57;97800.34;;;7.88;54.64
49947;BME280;35839;48.662;13.300;2023-03-01T09:38:22;97803.13;;;7.64;55.16
49947;BME280;35839;48.662;13.300;2023-03-01T09:40:48;97795.25;;;7.97;53.88
49947;BME280;35839;48.662;13.300;2023-03-01T09:43:55;97797.53;;;8.23;54.42
49947;BME280;35839;48.662;13.300;2023-03-01T09:46:07;97783.38;;;8.58;55.08
49947;BME280;35839;48.662;13.300;2023-03-01T09:48:42;97780.56;;;7.85;55.94
49947;BME280;35839;48.662;13.300;2023-03-01T09:51:13;97780.31;;;8.53;54.18
49947;BME280;35839;48.662;13.300;2023-03-01T09:53:39;97775.19;;;8.41;54.63
49947;BME280;35839;48.662;13.300;2023-03-01T10:01:44;97769.94;;;9.14;52.79
49947;BME280;35839;48.662;13.300;2023-03-01T10:04:45;97764.41;;;8.77;53.81
49947;BME280;35839;48.662;13.300;2023-03-01T10:10:10;97764.88;;;9.32;54.29
49947;BME280;35839;48.662;13.300;2023-03-01T10:12:41;97756.81;;;9.45;52.26
49947;BME280;35839;48.662;13.300;2023-03-01T10:15:15;97761.56;;;9.70;51.30
49947;BME280;35839;48.662;13.300;2023-03-01T10:17:57;97753.19;;;9.96;53.39
49947;BME280;35839;48.662;13.300;2023-03-01T10:20:40;97745.06;;;9.99;52.50
49947;BME280;35839;48.662;13.300;2023-03-01T10:23:08;97743.69;;;10.05;53.09
49947;BME280;35839;48.662;13.300;2023-03-01T10:30:58;97738.03;;;10.19;50.47
49947;BME280;35839;48.662;13.300;2023-03-01T10:33:32;97735.41;;;10.48;49.27
49947;BME280;35839;48.662;13.300;2023-03-01T10:36:00;97734.53;;;10.77;50.52
49947;BME280;35839;48.662;13.300;2023-03-01T10:38:30;97729.09;;;10.41;50.34
49947;BME280;35839;48.662;13.300;2023-03-01T10:40:59;97725.66;;;10.88;49.47
49947;BME280;35839;48.662;13.300;2023-03-01T10:43:43;97722.09;;;10.79;48.40
49947;BME280;35839;48.662;13.300;2023-03-01T10:46:23;97720.81;;;10.93;49.47
49947;BME280;35839;48.662;13.300;2023-03-01T10:51:45;97701.06;;;10.99;50.19
49947;BME280;35839;48.662;13.300;2023-03-01T10:54:25;97711.84;;;11.23;49.04
49947;BME280;35839;48.662;13.300;2023-03-01T10:56:57;97697.78;;;11.42;47.83
49947;BME280;35839;48.662;13.300;2023-03-01T10:59:35;97700.47;;;11.05;48.69
49947;BME280;35839;48.662;13.300;2023-03-01T11:02:30;97681.56;;;11.38;49.58
49947;BME280;35839;48.662;13.300;2023-03-01T11:05:01;97678.34;;;11.63;47.37
49947;BME280;35839;48.662;13.300;2023-03-01T11:07:28;97668.53;;;11.82;47.29
49947;BME280;35839;48.662;13.300;2023-03-01T11:09:53;97666.88;;;11.81;47.00
49947;BME280;35839;48.662;13.300;2023-03-01T11:12:20;97661.47;;;11.65;47.38
49947;BME280;35839;48.662;13.300;2023-03-01T11:17:30;97655.03;;;11.42;49.62
49947;BME280;35839;48.662;13.300;2023-03-01T11:22:47;97647.09;;;12.05;47.76
49947;BME280;35839;48.662;13.300;2023-03-01T11:25:15;97632.06;;;12.15;47.69
49947;BME280;35839;48.662;13.300;2023-03-01T11:27:44;97633.53;;;11.56;48.86
49947;BME280;35839;48.662;13.300;2023-03-01T11:30:23;97633.06;;;11.60;50.17
49947;BME280;35839;48.662;13.300;2023-03-01T11:32:53;97629.63;;;11.78;48.29
49947;BME280;35839;48.662;13.300;2023-03-01T11:35:24;97614.16;;;12.11;47.92
49947;BME280;35839;48.662;13.300;2023-03-01T11:40:38;97609.09;;;11.73;49.17
49947;BME280;35839;48.662;13.300;2023-03-01T11:43:16;97610.19;;;12.07;50.07
49947;BME280;35839;48.662;13.300;2023-03-01T11:50:56;97602.94;;;12.27;48.20
49947;BME280;35839;48.662;13.300;2023-03-01T11:59:02;97588.50;;;12.57;46.73
49947;BME280;35839;48.662;13.300;2023-03-01T12:01:44;97583.44;;;12.63;48.15
49947;BME280;35839;48.662;13.300;2023-03-01T12:07:00;97585.13;;;11.68;49.29
49947;BME280;35839;48.662;13.300;2023-03-01T12:15:19;97570.56;;;12.52;46.75
49947;BME280;35839;48.662;13.300;2023-03-01T12:21:03;97569.03;;;12.41;48.55
49947;BME280;35839;48.662;13.300;2023-03-01T12:23:39;97566.00;;;12.62;47.86
49947;BME280;35839;48.662;13.300;2023-03-01T12:26:27;97567.34;;;12.75;47.97
49947;BME280;35839;48.662;13.300;2023-03-01T12:32:00;97562.25;;;12.65;50.15
49947;BME280;35839;48.662;13.300;2023-03-01T12:39:54;97565.06;;;12.29;48.90
49947;BME280;35839;48.662;13.300;2023-03-01T12:42:36;97552.94;;;12.79;48.21
49947;BME280;35839;48.662;13.300;2023-03-01T12:45:26;97564.72;;;12.32;49.17
49947;BME280;35839;48.662;13.300;2023-03-01T12:50:49;97559.81;;;12.37;49.58
49947;BME280;35839;48.662;13.300;2023-03-01T12:53:25;97558.31;;;12.27;49.09
49947;BME280;35839;48.662;13.300;2023-03-01T12:55:54;97552.66;;;12.48;47.46
49947;BME280;35839;48.662;13.300;2023-03-01T12:58:32;97546.47;;;12.57;50.10
49947;BME280;35839;48.662;13.300;2023-03-01T13:04:06;97560.63;;;12.04;49.74
49947;BME280;35839;48.662;13.300;2023-03-01T13:11:58;97564.09;;;11.86;49.43
49947;BME280;35839;48.662;13.300;2023-03-01T13:16:52;97547.69;;;12.36;48.68
49947;BME280;35839;48.662;13.300;2023-03-01T13:21:45;97563.13;;;12.39;50.90
49947;BME280;35839;48.662;13.300;2023-03-01T13:24:28;97562.09;;;12.67;50.40
49947;BME280;35839;48.662;13.300;2023-03-01T13:32:24;97567.34;;;12.67;48.98
49947;BME280;35839;48.662;13.300;2023-03-01T13:34:59;97552.47;;;12.41;49.39
49947;BME280;35839;48.662;13.300;2023-03-01T13:37:36;97562.81;;;12.16;49.01
49947;BME280;35839;48.662;13.300;2023-03-01T13:42:45;97559.53;;;12.40;48.94
49947;BME280;35839;48.662;13.300;2023-03-01T13:45:38;97556.31;;;12.63;48.26
49947;BME280;35839;48.662;13.300;2023-03-01T13:50:45;97549.28;;;12.72;47.85
49947;BME280;35839;48.662;13.300;2023-03-01T13:53:17;97546.75;;;12.96;47.53
49947;BME280;35839;48.662;13.300;2023-03-01T13:55:45;97543.78;;;13.07;47.74
49947;BME280;35839;48.662;13.300;2023-03-01T13:58:31;97542.50;;;13.03;46.96
49947;BME280;35839;48.662;13.300;2023-03-01T14:01:03;97533.63;;;13.13;47.68
49947;BME280;35839;48.662;13.300;2023-03-01T14:03:31;97544.19;;;13.54;47.86
49947;BME280;35839;48.662;13.300;2023-03-01T14:06:08;97543.88;;;13.57;47.59
49947;BME280;35839;48.662;13.300;2023-03-01T14:08:37;97542.91;;;13.66;47.85
49947;BME280;35839;48.662;13.300;2023-03-01T14:11:29;97544.19;;;13.54;45.97
49947;BME280;35839;48.662;13.300;2023-03-01T14:21:45;97537.00;;;14.28;44.09
49947;BME280;35839;48.662;13.300;2023-03-01T14:24:20;97550.63;;;13.43;45.66
49947;BME280;35839;48.662;13.300;2023-03-01T14:26:46;97546.81;;;13.78;45.34
49947;BME280;35839;48.662;13.300;2023-03-01T14:29:41;97540.31;;;14.22;44.76
49947;BME280;35839;48.662;13.300;2023-03-01T14:32:25;97551.34;;;14.17;44.35
49947;BME280;35839;48.662;13.300;2023-03-01T14:34:51;97549.78;;;13.59;45.25
49947;BME280;35839;48.662;13.300;2023-03-01T14:39:47;97543.00;;;14.53;43.05
49947;BME280;35839;48.662;13.300;2023-03-01T14:42:13;97528.81;;;15.48;42.49
49947;BME280;35839;48.662;13.300;2023-03-01T14:44:44;97526.91;;;15.56;42.38
49947;BME280;35839;48.662;13.300;2023-03-01T14:47:19;97528.19;;;17.09;38.63
49947;BME280;35839;48.662;13.300;2023-03-01T14:49:50;97513.22;;;17.16;37.52
49947;BME280;35839;48.662;13.300;2023-03-01T14:52:21;97517.00;;;16.92;37.38
49947;BME280;35839;48.662;13.300;2023-03-01T14:54:50;97509.84;;;18.00;36.53
49947;BME280;35839;48.662;13.300;2023-03-01T14:57:22;97509.09;;;17.35;36.22
49947;BME280;35839;48.662;13.300;2023-03-01T14:59:48;97500.78;;;15.62;40.06
49947;BME280;35839;48.662;13.300;2023-03-01T15:02:18;97511.69;;;15.82;39.54
49947;BME280;35839;48.662;13.300;2023-03-01T15:04:47;97510.91;;;16.92;38.85
49947;BME280;35839;48.662;13.300;2023-03-01T15:07:14;97501.41;;;17.19;36.85
49947;BME280;35839;48.662;13.300;2023-03-01T15:09:40;97502.56;;;17.81;37.53
49947;BME280;35839;48.662;13.300;2023-03-01T15:14:54;97515.09;;;16.71;36.69
49947;BME280;35839;48.662;13.300;2023-03-01T15:17:28;97503.22;;;16.97;35.48
49947;BME280;35839;48.662;13.300;2023-03-01T15:19:56;97504.53;;;18.83;33.64
49947;BME280;35839;48.662;13.300;2023-03-01T15:22:22;97504.84;;;17.84;35.70
49947;BME280;35839;48.662;13.300;2023-03-01T15:24:50;97502.97;;;18.47;34.02
49947;BME280;35839;48.662;13.300;2023-03-01T15:27:18;97506.09;;;17.66;34.26
49947;BME280;35839;48.662;13.300;2023-03-01T15:29:54;97489.69;;;17.78;35.02
49947;BME280;35839;48.662;13.300;2023-03-01T15:32:25;97493.84;;;17.87;35.08
49947;BME280;35839;48.662;13.300;2023-03-01T15:34:51;97495.38;;;18.03;34.38
49947;BME280;35839;48.662;13.300;2023-03-01T15:37:44;97493.75;;;16.88;36.81
49947;BME280;35839;48.662;13.300;2023-03-01T15:40:29;97489.69;;;16.70;35.59
49947;BME280;35839;48.662;13.300;2023-03-01T15:42:59;97495.34;;;16.16;36.69
49947;BME280;35839;48.662;13.300;2023-03-01T15:45:27;97496.50;;;15.23;38.94
49947;BME280;35839;48.662;13.300;2023-03-01T15:47:58;97498.75;;;15.72;38.64
49947;BME280;35839;48.662;13.300;2023-03-01T15:52:56;97505.09;;;14.93;39.69
49947;BME280;35839;48.662;13.300;2023-03-01T15:55:25;97513.25;;;13.97;41.57
49947;BME280;35839;48.662;13.300;2023-03-01T15:58:03;97506.13;;;14.53;41.06
49947;BME280;35839;48.662;13.300;2023-03-01T16:00:30;97512.13;;;13.66;42.50
49947;BME280;35839;48.662;13.300;2023-03-01T16:02:56;97518.66;;;13.95;42.08
49947;BME280;35839;48.662;13.300;2023-03-01T16:07:49;97529.94;;;11.78;46.76
49947;BME280;35839;48.662;13.300;2023-03-01T16:10:16;97527.88;;;11.64;48.36
49947;BME280;35839;48.662;13.300;2023-03-01T16:12:41;97526.63;;;11.50;48.45
49947;BME280;35839;48.662;13.300;2023-03-01T16:15:26;97522.19;;;11.68;47.98
49947;BME280;35839;48.662;13.300;2023-03-01T16:17:52;97534.31;;;11.69;48.14
49947;BME280;35839;48.662;13.300;2023-03-01T16:20:18;97541.84;;;11.28;49.18
49947;BME280;35839;48.662;13.300;2023-03-01T16:22:45;97541.47;;;11.41;48.73
49947;BME280;35839;48.662;13.300;2023-03-01T16:25:12;97532.63;;;10.88;50.42
49947;BME280;35839;48.662;13.300;2023-03-01T16:27:38;97540.72;;;10.12;53.45
49947;BME280;35839;48.662;13.300;2023-03-01T16:30:05;97539.81;;;9.84;54.20
49947;BME280;35839;48.662;13.300;2023-03-01T16:32:31;97541.19;;;10.35;53.69
49947;BME280;35839;48.662;13.300;2023-03-01T16:34:56;97549.16;;;9.96;54.91
49947;BME280;35839;48.662;13.300;2023-03-01T16:37:21;97555.97;;;10.07;54.70
49947;BME280;35839;48.662;13.300;2023-03-01T16:39:47;97556.44;;;10.02;54.80
49947;BME280;35839;48.662;13.300;2023-03-01T16:42:16;97554.25;;;9.88;55.43
49947;BME280;35839;48.662;13.300;2023-03-01T16:44:42;97559.56;;;9.49;56.05
49947;BME280;35839;48.662;13.300;2023-03-01T16:47:07;97549.47;;;9.74;55.53
49947;BME280;35839;48.662;13.300;2023-03-01T16:49:32;97560.50;;;9.58;56.58
49947;BME280;35839;48.662;13.300;2023-03-01T16:51:57;97563.13;;;9.19;57.70
49947;BME280;35839;48.662;13.300;2023-03-01T16:54:24;97561.66;;;8.66;60.36
49947;BME280;35839;48.662;13.300;2023-03-01T16:56:49;97567.00;;;8.55;61.77
49947;BME280;35839;48.662;13.300;2023-03-01T16:59:15;97570.41;;;8.55;61.90
49947;BME280;35839;48.662;13.300;2023-03-01T17:01:40;97570.94;;;8.90;60.40
49947;BME280;35839;48.662;13.300;2023-03-01T17:04:10;97564.28;;;8.66;61.40
49947;BME280;35839;48.662;13.300;2023-03-01T17:06:36;97571.38;;;8.44;62.19
49947;BME280;35839;48.662;13.300;2023-03-01T17:09:01;97570.56;;;8.23;63.81
49947;BME280;35839;48.662;13.300;2023-03-01T17:11:26;97577.00;;;8.19;63.82
49947;BME280;35839;48.662;13.300;2023-03-01T17:13:52;97577.69;;;8.21;62.63
49947;BME280;35839;48.662;13.300;2023-03-01T17:16:18;97579.97;;;7.84;64.49
49947;BME280;35839;48.662;13.300;2023-03-01T17:18:44;97579.13;;;7.83;65.33
49947;BME280;35839;48.662;13.300;2023-03-01T17:21:11;97585.69;;;7.77;65.02
49947;BME280;35839;48.662;13.300;2023-03-01T17:23:38;97592.25;;;7.72;65.96
49947;BME280;35839;48.662;13.300;2023-03-01T17:26:05;97599.59;;;7.67;65.15
49947;BME280;35839;48.662;13.300;2023-03-01T17:28:35;97606.25;;;7.59;65.74
49947;BME280;35839;48.662;13.300;2023-03-01T17:31:02;97618.06;;;7.43;66.13
49947;BME280;35839;48.662;13.300;2023-03-01T17:33:28;97621.44;;;7.54;66.30
49947;BME280;35839;48.662;13.300;2023-03-01T17:35:57;97618.91;;;7.32;67.27
49947;BME280;35839;48.662;13.300;2023-03-01T17:38:24;97624.38;;;7.29;66.17
49947;BME280;35839;48.662;13.300;2023-03-01T17:40:49;97626.56;;;7.12;67.63
49947;BME280;35839;48.662;13.300;2023-03-01T17:43:16;97625.41;;;7.05;68.01
49947;BME280;35839;48.662;13.300;2023-03-01T17:45:43;97633.66;;;7.10;68.28
49947;BME280;35839;48.662;13.300;2023-03-01T17:48:12;97631.19;;;7.41;67.84
49947;BME280;35839;48.662;13.300;2023-03-01T17:50:38;97636.44;;;6.86;69.45
49947;BME280;35839;48.662;13.300;2023-03-01T17:53:05;97648.84;;;6.83;69.46
49947;BME280;35839;48.662;13.300;2023-03-01T17:55:38;97639.25;;;7.06;68.32
49947;BME280;35839;48.662;13.300;2023-03-01T17:58:04;97645.31;;;6.95;68.61
49947;BME280;35839;48.662;13.300;2023-03-01T18:00:30;97654.56;;;6.77;70.68
49947;BME280;35839;48.662;13.300;2023-03-01T18:02:56;97644.38;;;6.85;69.06
49947;BME280;35839;48.662;13.300;2023-03-01T18:05:21;97641.13;;;7.47;66.62
49947;BME280;35839;48.662;13.300;2023-03-01T18:07:46;97648.34;;;7.23;67.38
49947;BME280;35839;48.662;13.300;2023-03-01T18:10:12;97641.84;;;7.06;67.72
49947;BME280;35839;48.662;13.300;2023-03-01T18:12:37;97650.16;;;6.88;68.79
49947;BME280;35839;48.662;13.300;2023-03-01T18:15:05;97643.78;;;6.81;69.25
49947;BME280;35839;48.662;13.300;2023-03-01T18:17:30;97645.03;;;7.21;67.20
49947;BME280;35839;48.662;13.300;2023-03-01T18:19:56;97646.84;;;6.97;67.77
49947;BME280;35839;48.662;13.300;2023-03-01T18:22:21;97654.41;;;6.89;68.83
49947;BME280;35839;48.662;13.300;2023-03-01T18:24:47;97654.28;;;7.13;67.07
49947;BME280;35839;48.662;13.300;2023-03-01T18:27:12;97651.13;;;7.31;65.98
49947;BME280;35839;48.662;13.300;2023-03-01T18:29:38;97661.00;;;7.27;66.02
49947;BME280;35839;48.662;13.300;2023-03-01T18:32:04;97664.25;;;6.86;68.18
49947;BME280;35839;48.662;13.300;2023-03-01T18:34:29;97664.69;;;7.13;66.14
49947;BME280;35839;48.662;13.300;2023-03-01T18:36:55;97665.25;;;7.17;66.37
49947;BME280;35839;48.662;13.300;2023-03-01T18:39:21;97661.41;;;6.89;67.70
49947;BME280;35839;48.662;13.300;2023-03-01T18:41:47;97662.56;;;6.96;68.04
49947;BME280;35839;48.662;13.300;2023-03-01T18:44:13;97651.59;;;6.92;67.76
49947;BME280;35839;48.662;13.300;2023-03-01T18:46:45;97668.50;;;6.87;68.14
49947;BME280;35839;48.662;13.300;2023-03-01T18:49:12;97659.53;;;6.68;68.71
49947;BME280;35839;48.662;13.300;2023-03-01T18:51:38;97652.19;;;6.73;69.18
49947;BME280;35839;48.662;13.300;2023-03-01T18:54:05;97657.63;;;6.70;69.10
49947;BME280;35839;48.662;13.300;2023-03-01T18:56:32;97656.56;;;6.62;69.47
49947;BME280;35839;48.662;13.300;2023-03-01T18:58:58;97654.19;;;6.47;70.37
49947;BME280;35839;48.662;13.300;2023-03-01T19:01:26;97655.50;;;6.42;70.25
49947;BME280;35839;48.662;13.300;2023-03-01T19:03:52;97657.59;;;6.14;72.66
49947;BME280;35839;48.662;13.300;2023-03-01T19:06:18;97659.06;;;5.94;74.04
49947;BME280;35839;48.662;13.300;2023-03-01T19:08:44;97655.38;;;6.21;71.68
49947;BME280;35839;48.662;13.300;2023-03-01T19:11:12;97646.03;;;6.41;70.87
49947;BME280;35839;48.662;13.300;2023-03-01T19:13:39;97650.41;;;6.51;69.34
49947;BME280;35839;48.662;13.300;2023-03-01T19:16:10;97648.06;;;6.37;70.57
49947;BME280;35839;48.662;13.300;2023-03-01T19:18:36;97653.97;;;6.39;70.13
49947;BME280;35839;48.662;13.300;2023-03-01T19:21:04;97646.84;;;6.52;69.60
49947;BME280;35839;48.662;13.300;2023-03-01T19:23:30;97639.41;;;6.82;67.86
49947;BME280;35839;48.662;13.300;2023-03-01T19:26:00;97632.06;;;6.19;70.47
49947;BME280;35839;48.662;13.300;2023-03-01T19:28:25;97638.69;;;6.12;71.44
49947;BME280;35839;48.662;13.300;2023-03-01T19:30:51;97633.84;;;6.52;69.38
49947;BME280;35839;48.662;13.300;2023-03-01T19:33:16;97646.03;;;6.63;68.17
49947;BME280;35839;48.662;13.300;2023-03-01T19:35:41;97639.88;;;6.30;70.13
49947;BME280;35839;48.662;13.300;2023-03-01T19:38:07;97641.41;;;6.22;69.94
49947;BME280;35839;48.662;13.300;2023-03-01T19:40:34;97641.31;;;6.23;70.72
49947;BME280;35839;48.662;13.300;2023-03-01T19:43:00;97637.06;;;6.45;69.17
49947;BME280;35839;48.662;13.300;2023-03-01T19:45:25;97636.44;;;6.07;71.28
49947;BME280;35839;48.662;13.300;2023-03-01T19:47:51;97630.41;;;6.07;70.86
49947;BME280;35839;48.662;13.300;2023-03-01T19:50:16;97633.88;;;5.59;74.08
49947;BME280;35839;48.662;13.300;2023-03-01T19:52:42;97640.22;;;5.79;73.14
49947;BME280;35839;48.662;13.300;2023-03-01T19:55:07;97631.50;;;5.91;72.53
49947;BME280;35839;48.662;13.300;2023-03-01T19:57:33;97633.25;;;6.04;71.48
49947;BME280;35839;48.662;13.300;2023-03-01T19:59:58;97626.44;;;5.90;71.81
49947;BME280;35839;48.662;13.300;2023-03-01T20:02:24;97643.28;;;5.97;71.34
49947;BME280;35839;48.662;13.300;2023-03-01T20:04:49;97639.94;;;5.60;73.46
49947;BME280;35839;48.662;13.300;2023-03-01T20:07:15;97633.06;;;5.59;74.00
49947;BME280;35839;48.662;13.300;2023-03-01T20:09:40;97636.66;;;5.69;73.65
49947;BME280;35839;48.662;13.300;2023-03-01T20:12:05;97631.47;;;5.80;73.37
49947;BME280;35839;48.662;13.300;2023-03-01T20:14:31;97635.63;;;5.47;74.94
49947;BME280;35839;48.662;13.300;2023-03-01T20:16:56;97638.00;;;5.51;74.91
49947;BME280;35839;48.662;13.300;2023-03-01T20:19:22;97641.38;;;5.75;73.71
49947;BME280;35839;48.662;13.300;2023-03-01T20:21:47;97641.28;;;5.41;74.81
49947;BME280;35839;48.662;13.300;2023-03-01T20:24:12;97644.13;;;5.49;75.14